createdAt,value
2019-03-10T00:01:20.792Z,7.47
2019-03-10T00:03:56.522Z,6.92
2019-03-10T00:06:26.115Z,7.00
2019-03-10T00:09:01.869Z,6.33
2019-03-10T00:11:37.515Z,3.33
2019-03-10T00:14:07.088Z,4.40
2019-03-10T00:16:43.789Z,4.35
2019-03-10T00:19:13.550Z,3.25
2019-03-10T00:21:56.389Z,4.03
2019-03-10T00:24:25.828Z,2.85
2019-03-10T00:27:01.843Z,1.92
2019-03-10T00:29:31.418Z,2.50
2019-03-10T00:32:00.928Z,3.60
2019-03-10T00:34:37.044Z,5.17
2019-03-10T00:37:06.632Z,2.05
2019-03-10T00:39:50.309Z,3.35
2019-03-10T00:42:53.636Z,3.85
2019-03-10T00:45:59.494Z,2.17
2019-03-10T00:48:58.906Z,2.02
2019-03-10T00:52:08.385Z,2.83
2019-03-10T00:54:44.225Z,2.60
2019-03-10T00:57:13.884Z,5.97
2019-03-10T00:59:50.633Z,5.22
2019-03-10T01:02:20.138Z,3.33
2019-03-10T01:04:49.582Z,4.15
2019-03-10T01:07:26.023Z,5.33
2019-03-10T01:09:55.594Z,3.72
2019-03-10T01:12:31.681Z,5.25
2019-03-10T01:15:01.283Z,4.97
2019-03-10T01:17:32.742Z,4.05
2019-03-10T01:20:09.036Z,7.45
2019-03-10T01:22:58.787Z,8.88
2019-03-10T01:25:28.722Z,7.70
2019-03-10T01:27:58.244Z,5.53
2019-03-10T01:30:37.930Z,7.33
2019-03-10T01:33:44.175Z,7.62
2019-03-10T01:36:21.972Z,6.40
2019-03-10T01:38:51.493Z,7.85
2019-03-10T01:41:27.112Z,16.85
2019-03-10T01:43:56.626Z,4.30
2019-03-10T01:46:32.191Z,6.92
2019-03-10T01:49:08.325Z,4.17
2019-03-10T01:51:37.760Z,9.95
2019-03-10T01:54:19.914Z,10.43
2019-03-10T01:56:56.350Z,5.85
2019-03-10T01:59:25.869Z,9.40
2019-03-10T02:02:01.556Z,14.83
2019-03-10T02:04:31.141Z,9.83
2019-03-10T02:07:07.142Z,9.35
2019-03-10T02:09:36.667Z,10.00
2019-03-10T02:12:12.790Z,9.18
2019-03-10T02:14:42.306Z,13.68
2019-03-10T02:17:11.814Z,12.00
2019-03-10T02:19:47.552Z,15.03
2019-03-10T02:22:23.480Z,6.80
2019-03-10T02:25:05.707Z,15.10
2019-03-10T02:27:35.215Z,10.35
2019-03-10T02:30:15.936Z,7.60
2019-03-10T02:32:45.442Z,6.25
2019-03-10T02:35:15.042Z,10.08
2019-03-10T02:37:51.307Z,17.23
2019-03-10T02:40:20.741Z,15.43
2019-03-10T02:42:56.747Z,12.78
2019-03-10T02:45:33.319Z,14.87
2019-03-10T02:48:02.869Z,11.70
2019-03-10T02:50:32.350Z,16.93
2019-03-10T02:53:08.369Z,12.90
2019-03-10T02:55:44.796Z,14.50
2019-03-10T02:58:20.371Z,12.95
2019-03-10T03:00:56.475Z,14.13
2019-03-10T03:03:25.983Z,17.10
2019-03-10T03:06:02.482Z,12.33
2019-03-10T03:08:37.967Z,11.22
2019-03-10T03:11:07.469Z,13.05
2019-03-10T03:13:43.937Z,17.52
2019-03-10T03:16:13.369Z,14.47
2019-03-10T03:18:55.281Z,10.20
2019-03-10T03:21:24.958Z,18.42
2019-03-10T03:24:07.588Z,6.75
2019-03-10T03:26:43.989Z,12.95
2019-03-10T03:29:19.953Z,12.35
2019-03-10T03:31:55.501Z,13.50
2019-03-10T03:34:32.037Z,15.45
2019-03-10T03:37:08.213Z,13.22
2019-03-10T03:39:45.085Z,8.18
2019-03-10T03:42:20.971Z,10.50
2019-03-10T03:44:50.415Z,15.60
2019-03-10T03:47:26.073Z,10.20
2019-03-10T03:49:55.526Z,15.15
2019-03-10T03:52:31.517Z,15.25
2019-03-10T03:55:07.193Z,12.78
2019-03-10T03:57:42.747Z,16.10
2019-03-10T04:00:20.214Z,11.40
2019-03-10T04:02:49.653Z,11.40
2019-03-10T04:05:25.618Z,20.02
2019-03-10T04:08:01.934Z,11.45
2019-03-10T04:10:31.371Z,15.43
2019-03-10T04:13:07.277Z,9.18
2019-03-10T04:15:44.113Z,8.45
2019-03-10T04:18:13.557Z,10.53
2019-03-10T04:20:43.004Z,11.95
2019-03-10T04:23:19.292Z,7.83
2019-03-10T04:25:55.773Z,8.23
2019-03-10T04:28:32.087Z,5.62
2019-03-10T04:31:15.547Z,14.75
2019-03-10T04:33:45.050Z,9.88
2019-03-10T04:36:21.079Z,11.93
2019-03-10T04:38:56.607Z,9.53
2019-03-10T04:41:32.590Z,13.80
2019-03-10T04:44:02.028Z,9.58
2019-03-10T04:46:31.463Z,10.90
2019-03-10T04:49:08.081Z,20.10
2019-03-10T04:51:43.968Z,12.43
2019-03-10T04:54:21.663Z,17.87
2019-03-10T04:56:52.741Z,17.73
2019-03-10T04:59:28.747Z,13.08
2019-03-10T05:01:58.178Z,10.48
2019-03-10T05:04:34.927Z,16.90
2019-03-10T05:07:10.755Z,9.83
2019-03-10T05:09:40.185Z,11.93
2019-03-10T05:12:16.182Z,14.90
2019-03-10T05:14:51.717Z,10.60
2019-03-10T05:17:27.178Z,11.90
2019-03-10T05:20:02.983Z,18.00
2019-03-10T05:22:32.434Z,11.38
2019-03-10T05:25:15.308Z,14.53
2019-03-10T05:27:51.683Z,9.88
2019-03-10T05:30:27.299Z,14.73
2019-03-10T05:32:56.739Z,8.25
2019-03-10T05:35:33.298Z,15.32
2019-03-10T05:38:02.731Z,5.35
2019-03-10T05:40:38.288Z,12.18
2019-03-10T05:43:07.799Z,17.40
2019-03-10T05:45:43.519Z,7.50
2019-03-10T05:48:12.981Z,10.18
2019-03-10T05:50:48.509Z,13.62
2019-03-10T05:53:17.953Z,16.48
2019-03-10T05:55:54.029Z,10.45
2019-03-10T05:58:23.460Z,8.83
2019-03-10T06:00:59.085Z,16.25
2019-03-10T06:03:28.589Z,13.50
2019-03-10T06:05:58.028Z,9.05
2019-03-10T06:08:33.771Z,13.18
2019-03-10T06:11:03.211Z,12.68
2019-03-10T06:13:39.070Z,8.83
2019-03-10T06:16:08.506Z,7.17
2019-03-10T06:18:50.960Z,8.45
2019-03-10T06:21:20.421Z,11.48
2019-03-10T06:23:56.277Z,12.25
2019-03-10T06:26:32.226Z,9.88
2019-03-10T06:29:14.327Z,5.40
2019-03-10T06:31:43.836Z,11.68
2019-03-10T06:34:20.109Z,14.18
2019-03-10T06:36:49.525Z,12.75
2019-03-10T06:39:19.036Z,16.07
2019-03-10T06:41:55.528Z,12.90
2019-03-10T06:44:25.020Z,8.40
2019-03-10T06:47:01.550Z,9.95
2019-03-10T06:49:30.996Z,10.50
2019-03-10T06:52:07.548Z,11.68
2019-03-10T06:54:44.071Z,15.85
2019-03-10T06:57:20.312Z,13.10
2019-03-10T06:59:56.152Z,14.50
2019-03-10T07:02:25.674Z,7.85
2019-03-10T07:04:55.197Z,6.70
2019-03-10T07:07:30.830Z,11.28
2019-03-10T07:10:15.900Z,14.43
2019-03-10T07:12:51.771Z,7.35
2019-03-10T07:15:21.417Z,8.40
2019-03-10T07:17:58.228Z,9.63
2019-03-10T07:20:34.407Z,8.83
2019-03-10T07:23:05.550Z,8.38
2019-03-10T07:25:48.264Z,13.10
2019-03-10T07:28:26.299Z,13.60
2019-03-10T07:31:11.175Z,12.07
2019-03-10T07:33:42.263Z,10.53
2019-03-10T07:36:25.594Z,11.03
2019-03-10T07:39:18.180Z,11.12
2019-03-10T07:41:58.862Z,7.45
2019-03-10T07:44:36.457Z,5.62
2019-03-10T07:47:14.242Z,8.88
2019-03-10T07:49:48.143Z,7.35
2019-03-10T07:52:26.197Z,7.97
2019-03-10T07:55:09.491Z,6.97
2019-03-10T07:57:53.968Z,7.83
2019-03-10T08:00:31.690Z,9.20
2019-03-10T08:03:12.214Z,5.47
2019-03-10T08:05:43.299Z,3.65
2019-03-10T08:08:24.761Z,8.65
2019-03-10T08:10:55.847Z,7.72
2019-03-10T08:13:51.467Z,9.30
2019-03-10T08:16:38.588Z,7.33
2019-03-10T08:19:25.330Z,15.43
2019-03-10T08:22:19.572Z,9.68
2019-03-10T08:25:09.060Z,7.53
2019-03-10T08:28:02.160Z,20.10
2019-03-10T08:30:49.328Z,18.52
2019-03-10T08:33:36.385Z,11.38
2019-03-10T08:36:14.033Z,8.93
2019-03-10T08:39:00.898Z,8.25
2019-03-10T08:41:38.087Z,16.20
2019-03-10T08:44:23.901Z,18.30
2019-03-10T08:47:06.809Z,14.55
2019-03-10T08:49:45.158Z,15.53
2019-03-10T08:52:20.132Z,12.07
2019-03-10T08:54:57.358Z,11.70
2019-03-10T08:57:41.428Z,10.70
2019-03-10T09:00:18.124Z,9.23
2019-03-10T09:03:04.922Z,15.83
2019-03-10T09:05:43.218Z,12.93
2019-03-10T09:08:29.310Z,14.40
2019-03-10T09:11:23.144Z,29.95
2019-03-10T09:14:01.383Z,20.45
2019-03-10T09:16:38.080Z,20.10
2019-03-10T09:19:25.230Z,28.87
2019-03-10T09:22:02.627Z,14.45
2019-03-10T09:24:49.268Z,25.88
2019-03-10T09:27:29.477Z,31.27
2019-03-10T09:30:29.405Z,22.87
2019-03-10T09:33:09.258Z,21.33
2019-03-10T09:35:49.438Z,21.57
2019-03-10T09:38:35.995Z,17.20
2019-03-10T09:41:10.019Z,16.82
2019-03-10T09:43:47.319Z,21.35
2019-03-10T09:46:24.566Z,10.63
2019-03-10T09:49:02.878Z,15.78
2019-03-10T09:51:33.970Z,10.85
2019-03-10T09:54:05.345Z,18.60
2019-03-10T09:56:57.915Z,11.10
2019-03-10T09:59:47.836Z,17.75
2019-03-10T10:02:25.621Z,19.12
2019-03-10T10:04:56.857Z,10.82
2019-03-10T10:07:40.047Z,14.75
2019-03-10T10:10:27.588Z,19.73
2019-03-10T10:13:08.825Z,18.80
2019-03-10T10:15:46.206Z,12.90
2019-03-10T10:18:24.050Z,15.15
2019-03-10T10:21:05.143Z,18.07
2019-03-10T10:23:39.426Z,9.53
2019-03-10T10:26:26.111Z,11.73
2019-03-10T10:29:03.422Z,14.60
2019-03-10T10:31:41.101Z,11.85
2019-03-10T10:34:41.323Z,11.40
2019-03-10T10:37:21.494Z,10.98
2019-03-10T10:39:58.908Z,10.72
2019-03-10T10:42:35.921Z,8.85
2019-03-10T10:45:21.028Z,10.10
2019-03-10T10:48:15.003Z,9.93
2019-03-10T10:53:41.680Z,16.60
2019-03-10T10:56:35.163Z,12.85
2019-03-10T10:59:14.990Z,16.60
2019-03-10T11:02:01.948Z,10.88
2019-03-10T11:04:49.146Z,10.18
2019-03-10T11:07:26.898Z,12.88
2019-03-10T11:10:06.454Z,9.43
2019-03-10T11:12:59.033Z,9.55
2019-03-10T11:15:53.540Z,11.30
2019-03-10T11:18:33.501Z,15.03
2019-03-10T11:21:07.676Z,14.23
2019-03-10T11:23:48.298Z,13.20
2019-03-10T11:26:31.567Z,11.70
2019-03-10T11:29:08.824Z,15.08
2019-03-10T11:31:53.380Z,18.52
2019-03-10T11:34:31.203Z,14.65
2019-03-10T11:37:11.903Z,12.58
2019-03-10T11:39:45.740Z,12.33
2019-03-10T11:42:29.669Z,19.87
2019-03-10T11:45:22.799Z,7.67
2019-03-10T11:48:06.931Z,8.90
2019-03-10T11:50:40.532Z,12.47
2019-03-10T11:53:20.709Z,13.43
2019-03-10T11:55:57.649Z,14.00
2019-03-10T11:58:35.843Z,14.30
2019-03-10T12:01:10.409Z,9.23
2019-03-10T12:03:47.759Z,7.15
2019-03-10T12:06:37.276Z,15.35
2019-03-10T12:09:15.776Z,13.78
2019-03-10T12:11:52.378Z,7.10
2019-03-10T12:14:22.027Z,8.95
2019-03-10T12:16:58.499Z,11.85
2019-03-10T12:19:28.006Z,8.23
2019-03-10T12:22:09.989Z,12.10
2019-03-10T12:24:46.001Z,12.35
2019-03-10T12:27:22.774Z,8.20
2019-03-10T12:29:52.231Z,17.00
2019-03-10T12:32:35.311Z,11.75
2019-03-10T12:35:06.715Z,9.08
2019-03-10T12:37:43.191Z,6.70
2019-03-10T12:40:13.572Z,9.90
2019-03-10T12:42:49.327Z,10.82
2019-03-10T12:45:18.914Z,10.10
2019-03-10T12:47:55.075Z,9.05
2019-03-10T12:50:31.483Z,15.70
2019-03-10T12:53:00.934Z,11.80
2019-03-10T12:55:37.097Z,10.63
2019-03-10T12:58:06.695Z,9.70
2019-03-10T13:00:43.554Z,13.00
2019-03-10T13:03:13.006Z,11.00
2019-03-10T13:05:49.579Z,11.25
2019-03-10T13:08:19.022Z,15.10
2019-03-10T13:10:54.651Z,12.98
2019-03-10T13:13:24.207Z,10.95
2019-03-10T13:16:00.252Z,9.05
2019-03-10T13:18:29.691Z,9.83
2019-03-10T13:21:05.637Z,13.65
2019-03-10T13:23:42.104Z,15.28
2019-03-10T13:26:24.092Z,13.85
2019-03-10T13:28:53.892Z,10.68
2019-03-10T13:31:30.343Z,16.35
2019-03-10T13:34:06.318Z,14.93
2019-03-10T13:36:41.866Z,11.85
2019-03-10T13:39:18.351Z,9.15
2019-03-10T13:41:54.827Z,9.33
2019-03-10T13:44:30.505Z,9.53
2019-03-10T13:47:06.750Z,12.40
2019-03-10T13:49:36.339Z,7.72
2019-03-10T13:52:26.757Z,9.70
2019-03-10T13:55:02.999Z,11.90
2019-03-10T13:57:39.638Z,11.15
2019-03-10T14:00:27.645Z,8.40
2019-03-10T14:03:03.836Z,11.43
2019-03-10T14:05:33.698Z,9.53
2019-03-10T14:08:10.135Z,12.50
2019-03-10T14:10:39.585Z,10.35
2019-03-10T14:13:15.922Z,14.10
2019-03-10T14:15:51.993Z,15.03
2019-03-10T14:18:28.218Z,13.60
2019-03-10T14:21:04.213Z,7.90
2019-03-10T14:23:33.735Z,12.30
2019-03-10T14:26:12.151Z,14.28
2019-03-10T14:28:41.664Z,7.90
2019-03-10T14:31:18.356Z,11.75
2019-03-10T14:34:01.034Z,14.47
2019-03-10T14:36:40.469Z,16.17
2019-03-10T14:39:16.578Z,11.28
2019-03-10T14:41:53.437Z,11.08
2019-03-10T14:44:23.035Z,13.45
2019-03-10T14:46:58.586Z,12.35
2019-03-10T14:49:28.243Z,10.10
2019-03-10T14:52:04.001Z,15.70
2019-03-10T14:54:40.668Z,14.30
2019-03-10T14:57:10.349Z,19.15
2019-03-10T14:59:46.136Z,11.35
2019-03-10T15:02:15.610Z,12.35
2019-03-10T15:04:45.144Z,13.35
2019-03-10T15:07:22.018Z,14.53
2019-03-10T15:09:51.543Z,14.20
2019-03-10T15:12:28.257Z,17.57
2019-03-10T15:15:04.689Z,14.43
2019-03-10T15:17:34.288Z,14.15
2019-03-10T15:20:11.172Z,15.55
2019-03-10T15:22:47.658Z,12.23
2019-03-10T15:25:31.688Z,13.25
2019-03-10T15:28:01.365Z,18.90
2019-03-10T15:30:38.044Z,15.10
2019-03-10T15:33:13.762Z,13.55
2019-03-10T15:35:55.876Z,12.78
2019-03-10T15:38:25.467Z,17.12
2019-03-10T15:41:01.359Z,18.10
2019-03-10T15:43:37.952Z,13.83
2019-03-10T15:46:07.470Z,13.18
2019-03-10T15:48:44.144Z,16.77
2019-03-10T15:51:13.732Z,13.38
2019-03-10T15:53:49.496Z,16.15
2019-03-10T15:56:18.958Z,14.70
2019-03-10T15:58:55.426Z,11.97
2019-03-10T16:01:31.041Z,11.33
2019-03-10T16:04:16.331Z,14.43
2019-03-10T16:06:53.465Z,14.63
2019-03-10T16:09:23.071Z,17.98
2019-03-10T16:11:52.686Z,10.30
2019-03-10T16:14:29.175Z,11.15
2019-03-10T16:17:06.028Z,17.57
2019-03-10T16:19:42.548Z,19.25
2019-03-10T16:22:12.330Z,11.03
2019-03-10T16:24:48.743Z,12.03
2019-03-10T16:27:18.279Z,13.30
2019-03-10T16:29:54.865Z,15.10
2019-03-10T16:32:24.322Z,13.95
2019-03-10T16:35:06.825Z,18.27
2019-03-10T16:37:42.483Z,14.85
2019-03-10T16:40:27.889Z,12.70
2019-03-10T16:42:57.481Z,14.20
2019-03-10T16:45:35.710Z,11.12
2019-03-10T16:48:05.754Z,31.40
2019-03-10T16:50:35.374Z,119.75
2019-03-10T16:53:12.037Z,38.67
2019-03-10T16:55:41.734Z,21.90
2019-03-10T16:58:18.012Z,16.65
2019-03-10T17:00:48.349Z,33.48
2019-03-10T17:03:18.146Z,26.02
2019-03-10T17:05:55.150Z,22.50
2019-03-10T17:08:24.828Z,16.20
2019-03-10T17:11:07.240Z,14.05
2019-03-10T17:13:43.264Z,16.17
2019-03-10T17:16:19.145Z,20.10
2019-03-10T17:18:48.667Z,67.55
2019-03-10T17:21:24.421Z,118.60
2019-03-10T17:23:53.961Z,68.47
2019-03-10T17:26:23.653Z,32.33
2019-03-10T17:29:00.222Z,23.90
2019-03-10T17:31:29.872Z,18.02
2019-03-10T17:34:05.615Z,20.57
2019-03-10T17:36:42.056Z,22.20
2019-03-10T17:39:11.642Z,21.87
2019-03-10T17:41:47.941Z,35.88
2019-03-10T17:44:17.550Z,31.62
2019-03-10T17:46:53.976Z,28.90
2019-03-10T17:49:23.493Z,24.27
2019-03-10T17:51:59.744Z,25.02
2019-03-10T17:54:36.440Z,27.93
2019-03-10T17:57:06.104Z,30.90
2019-03-10T17:59:35.724Z,34.18
2019-03-10T18:02:12.032Z,30.68
2019-03-10T18:04:43.859Z,30.77
2019-03-10T18:07:19.766Z,31.30
2019-03-10T18:09:56.318Z,74.85
2019-03-10T18:12:26.157Z,59.60
2019-03-10T18:15:09.221Z,70.67
2019-03-10T18:17:38.926Z,128.23
2019-03-10T18:20:29.869Z,237.97
2019-03-10T18:22:59.617Z,307.90
2019-03-10T18:25:35.428Z,309.20
2019-03-10T18:28:06.344Z,277.27
2019-03-10T18:30:49.300Z,284.60
2019-03-10T18:33:18.976Z,310.38
2019-03-10T18:35:56.444Z,267.23
2019-03-10T18:38:32.096Z,258.85
2019-03-10T18:41:08.144Z,285.20
2019-03-10T18:43:44.058Z,333.30
2019-03-10T18:46:13.656Z,379.23
2019-03-10T18:48:43.470Z,486.77
2019-03-10T18:51:19.854Z,416.35
2019-03-10T18:53:49.370Z,154.35
2019-03-10T18:56:25.734Z,96.85
2019-03-10T18:58:56.716Z,48.75
2019-03-10T19:01:33.451Z,33.02
2019-03-10T19:04:02.988Z,36.40
2019-03-10T19:06:32.647Z,32.98
2019-03-10T19:09:09.063Z,32.93
2019-03-10T19:11:38.732Z,30.40
2019-03-10T19:14:14.654Z,29.65
2019-03-10T19:16:44.183Z,26.35
2019-03-10T19:19:13.857Z,28.90
2019-03-10T19:21:50.372Z,32.93
2019-03-10T19:24:26.775Z,31.80
2019-03-10T19:27:04.254Z,28.52
2019-03-10T19:29:33.795Z,36.35
2019-03-10T19:32:04.144Z,32.65
2019-03-10T19:34:40.402Z,33.33
2019-03-10T19:37:09.990Z,30.77
2019-03-10T19:39:52.443Z,25.92
2019-03-10T19:42:28.594Z,32.28
2019-03-10T19:45:05.027Z,40.33
2019-03-10T19:47:34.848Z,39.25
2019-03-10T19:50:07.178Z,40.48
2019-03-10T19:52:42.998Z,47.60
2019-03-10T19:55:14.954Z,45.33
2019-03-10T19:57:51.034Z,47.65
2019-03-10T20:00:28.616Z,44.30
2019-03-10T20:02:58.204Z,45.92
2019-03-10T20:05:28.013Z,41.90
2019-03-10T20:08:03.561Z,38.90
2019-03-10T20:10:33.227Z,43.52
2019-03-10T20:13:08.995Z,33.75
2019-03-10T20:15:38.597Z,32.42
2019-03-10T20:18:16.023Z,35.55
2019-03-10T20:20:46.038Z,36.15
2019-03-10T20:23:15.691Z,33.05
2019-03-10T20:25:54.445Z,43.10
2019-03-10T20:28:30.790Z,40.38
2019-03-10T20:31:00.451Z,39.85
2019-03-10T20:33:42.319Z,39.83
2019-03-10T20:36:11.839Z,64.77
2019-03-10T20:38:54.970Z,59.33
2019-03-10T20:41:37.212Z,55.67
2019-03-10T20:44:12.830Z,71.33
2019-03-10T20:46:48.869Z,43.68
2019-03-10T20:49:18.325Z,41.37
2019-03-10T20:51:54.401Z,42.70
2019-03-10T20:54:30.107Z,39.78
2019-03-10T20:57:06.506Z,43.98
2019-03-10T20:59:36.032Z,34.45
2019-03-10T21:02:12.487Z,36.28
2019-03-10T21:04:41.958Z,153.70
2019-03-10T21:07:17.675Z,120.17
2019-03-10T21:09:53.717Z,67.40
2019-03-10T21:12:39.772Z,151.82
2019-03-10T21:15:00.808Z,45.03
2019-03-10T21:17:37.436Z,30.55
2019-03-10T21:20:18.449Z,31.33
2019-03-10T21:22:47.989Z,38.50
2019-03-10T21:25:30.324Z,28.60
2019-03-10T21:28:00.133Z,35.13
2019-03-10T21:30:40.180Z,23.22
2019-03-10T21:33:09.703Z,25.30
2019-03-10T21:35:39.511Z,35.00
2019-03-10T21:38:21.633Z,28.52
2019-03-10T21:40:57.442Z,26.65
2019-03-10T21:43:33.260Z,27.90
2019-03-10T21:46:09.523Z,30.85
2019-03-10T21:48:45.917Z,29.07
2019-03-10T21:51:21.593Z,35.03
2019-03-10T21:53:57.287Z,50.67
2019-03-10T21:56:33.625Z,51.35
2019-03-10T21:59:09.676Z,50.73
2019-03-10T22:01:45.882Z,41.53
2019-03-10T22:04:21.532Z,43.00
2019-03-10T22:06:58.055Z,38.20
2019-03-10T22:09:27.606Z,41.73
2019-03-10T22:11:57.129Z,40.88
2019-03-10T22:14:33.067Z,39.75
2019-03-10T22:17:02.607Z,36.75
2019-03-10T22:19:44.869Z,45.12
2019-03-10T22:22:14.313Z,33.23
2019-03-10T22:24:50.605Z,38.08
2019-03-10T22:27:20.121Z,33.05
2019-03-10T22:29:57.834Z,33.38
2019-03-10T22:32:27.062Z,29.05
2019-03-10T22:34:56.510Z,35.43
2019-03-10T22:37:39.249Z,29.02
2019-03-10T22:40:21.543Z,36.07
2019-03-10T22:43:04.236Z,31.33
2019-03-10T22:45:33.694Z,31.20
2019-03-10T22:48:03.167Z,33.45
2019-03-10T22:50:38.861Z,33.08
2019-03-10T22:53:14.555Z,32.53
2019-03-10T22:55:44.008Z,31.33
2019-03-10T22:58:19.980Z,29.02
2019-03-10T23:00:57.651Z,32.93
2019-03-10T23:03:27.301Z,28.30
2019-03-10T23:06:03.032Z,31.42
2019-03-10T23:08:38.695Z,31.48
2019-03-10T23:11:14.330Z,32.70
2019-03-10T23:13:43.769Z,30.97
2019-03-10T23:16:13.357Z,33.15
2019-03-10T23:18:49.616Z,36.88
2019-03-10T23:21:27.683Z,32.85
2019-03-10T23:24:03.413Z,37.65
2019-03-10T23:26:32.909Z,26.33
2019-03-10T23:29:08.947Z,29.95
2019-03-10T23:31:45.076Z,29.37
2019-03-10T23:34:14.514Z,24.27
2019-03-10T23:36:57.249Z,26.55
2019-03-10T23:39:26.698Z,21.33
2019-03-10T23:42:02.479Z,30.95
2019-03-10T23:44:45.388Z,24.75
2019-03-10T23:47:14.899Z,22.73
2019-03-10T23:49:50.780Z,19.62
2019-03-10T23:52:27.165Z,17.73
2019-03-10T23:55:03.775Z,23.57
2019-03-10T23:57:39.351Z,21.65
